Fargo, ND

09:15 PM CDT del 01 Agosto 2015 (GMT -0500)
Hector International | | Change Station
CLOSE
Current Station
Aeroporto
Location: Fargo,
Altitudine: 899 ft
Stazioni meteo nelle vicinanze

Alt. 899 ft 46.91 °N, 96.81 °W | Updated 22 minutes ago

Clear
Sereno
77 °F
Sembra 77 °F
N
5
Vento Variabile Vento da SE

Oggi
Massima -- | Minima -- °F
--% Possibilità di precip.
Ieri
Massima -- | Minima -- °F
Precip. -- in
6:06 AM 8:59 PM
Gobba a levante, 96% visible
Pressione 29.70 in
Visibilità 10.0 miglia
Nuvole Sereno
Punto di rugiada 65 °F
Umidità 66%
Piovosità 0.00 in
Spessore del manto nevoso Non disponibile.
Raggi UV 0 fuori da 12
Polline 7.50 fuori da 12
Qualità dell'aria Non disponibile.
Flu Activity Non disponibile.
METAR KFAR 020153Z 13004KT 10SM CLR 25/18 A2971 RMK AO2 SLP058 T02500183

More Conditions Fewer Conditions

Pressione 29.70 in
Visibilità 10.0 miglia
Nuvole Sereno
Punto di rugiada 65 °F
Umidità 66%
Piovosità 0.00 in
Spessore del manto nevoso Non disponibile.
Raggi UV 0 fuori da 12
Polline 7.50 fuori da 12
Qualità dell'aria Non disponibile.
Flu Activity Non disponibile.
METAR KFAR 020153Z 13004KT 10SM CLR 25/18 A2971 RMK AO2 SLP058 T02500183

More Conditions Fewer Conditions

10-Day Weather Forecast

×

Almanac

Astronomia

Aug. 01, 2015 Alba Tramonto
Ora attuale
Crepuscolo civile
Crepuscolo nautico
Crepuscolo astronomico
Luna
Estensione della luce visibile
Lunghezza del giorno
Tomorrow will be .
, % of the Moon is Illuminated

Gli estremi di oggi

State Highs State Lows

Community

WunderPhotos

Upload Photos

1,843,135 foto caricate!

WunderBlogs® & News

Nearby

Qualità dell'aria

  Qualità dell'aria Indice AQ Inquinante
Not available.

Profondità neve

Stazione Profondità Altitudine

Attività sismica

Città  Distanza Mag. Data & Ora
Minimo Magnitudo Mostrato è 2.5.

Temperature delle acque costiere

Località Temperatura

Stations

Stazioni meteo nelle vicinanze

Ubicazione della stazione Temp. Raffreddamento del vento Punto di rugiada Umidità Vento Precip. Alt. Aggiornato Tipo